createdAt,value
2023-03-12T00:00:51.242Z,4.18
2023-03-12T00:03:18.606Z,5.65
2023-03-12T00:05:45.970Z,3.88
2023-03-12T00:08:13.404Z,2.95
2023-03-12T00:10:40.883Z,3.37
2023-03-12T00:13:08.293Z,5.70
2023-03-12T00:15:39.136Z,2.28
2023-03-12T00:18:06.623Z,4.32
2023-03-12T00:20:33.931Z,7.35
2023-03-12T00:23:01.266Z,3.70
2023-03-12T00:25:28.535Z,4.07
2023-03-12T00:27:55.850Z,4.78
2023-03-12T00:30:23.261Z,4.10
2023-03-12T00:32:50.603Z,3.95
2023-03-12T00:35:17.914Z,2.97
2023-03-12T00:37:45.282Z,4.30
2023-03-12T00:40:13.107Z,4.75
2023-03-12T00:42:40.439Z,4.63
2023-03-12T00:45:08.251Z,4.05
2023-03-12T00:47:35.545Z,4.20
2023-03-12T00:50:03.428Z,3.50
2023-03-12T00:52:30.849Z,4.57
2023-03-12T00:54:59.024Z,4.05
2023-03-12T00:57:27.851Z,5.00
2023-03-12T00:59:55.140Z,4.13
2023-03-12T01:02:22.585Z,5.45
2023-03-12T01:04:49.843Z,4.78
2023-03-12T01:07:17.243Z,3.60
2023-03-12T01:09:44.476Z,3.35
2023-03-12T01:12:12.692Z,7.07
2023-03-12T01:14:39.916Z,7.00
2023-03-12T01:17:07.527Z,5.40
2023-03-12T01:19:34.900Z,4.03
2023-03-12T01:22:02.296Z,8.30
2023-03-12T01:24:29.928Z,3.77
2023-03-12T01:26:57.578Z,4.57
2023-03-12T01:29:24.876Z,5.35
2023-03-12T01:31:52.968Z,5.85
2023-03-12T01:34:20.263Z,5.32
2023-03-12T01:36:47.922Z,4.33
2023-03-12T01:39:15.375Z,5.40
2023-03-12T01:41:42.799Z,6.03
2023-03-12T01:44:13.634Z,5.80
2023-03-12T01:46:46.099Z,4.60
2023-03-12T01:49:27.758Z,4.37
2023-03-12T01:52:07.774Z,4.22
2023-03-12T01:54:41.687Z,5.82
2023-03-12T01:57:13.832Z,6.07
2023-03-12T01:59:47.003Z,5.45
2023-03-12T02:02:14.982Z,5.47
2023-03-12T02:04:43.083Z,6.28
2023-03-12T02:07:15.136Z,6.65
2023-03-12T02:09:44.328Z,4.22
2023-03-12T02:12:11.691Z,4.72
2023-03-12T02:14:39.329Z,5.50
2023-03-12T02:17:06.805Z,6.20
2023-03-12T02:20:01.386Z,5.18
2023-03-12T02:22:29.101Z,5.38
2023-03-12T02:25:04.004Z,5.38
2023-03-12T02:27:34.905Z,5.33
2023-03-12T02:30:02.993Z,5.32
2023-03-12T02:32:35.386Z,5.60
2023-03-12T02:35:03.422Z,5.10
2023-03-12T02:37:30.708Z,5.10
2023-03-12T02:40:26.883Z,5.13
2023-03-12T02:42:54.381Z,6.80
2023-03-12T02:45:21.892Z,6.13
2023-03-12T02:47:49.276Z,5.95
2023-03-12T02:50:16.570Z,5.15
2023-03-12T02:52:43.918Z,9.07
2023-03-12T02:55:11.327Z,5.32
2023-03-12T02:57:38.891Z,5.55
2023-03-12T03:00:12.655Z,5.50
2023-03-12T03:02:44.546Z,4.75
2023-03-12T03:05:12.020Z,6.33
2023-03-12T03:07:39.576Z,5.90
2023-03-12T03:10:07.532Z,6.65
2023-03-12T03:12:35.540Z,6.00
2023-03-12T03:15:04.361Z,5.50
2023-03-12T03:17:31.639Z,5.33
2023-03-12T03:19:58.983Z,4.72
2023-03-12T03:22:26.271Z,5.88
2023-03-12T03:24:54.236Z,6.40
2023-03-12T03:27:21.527Z,5.70
2023-03-12T03:32:15.851Z,9.27
2023-03-12T03:34:43.155Z,5.97
2023-03-12T03:37:10.640Z,6.88
2023-03-12T03:39:37.995Z,5.22
2023-03-12T03:42:05.319Z,7.10
2023-03-12T03:44:34.059Z,6.40
2023-03-12T03:47:01.464Z,6.07
2023-03-12T03:49:28.847Z,7.45
2023-03-12T03:51:56.489Z,5.88
2023-03-12T03:54:31.290Z,7.23
2023-03-12T03:56:59.576Z,8.32
2023-03-12T03:59:27.252Z,7.97
2023-03-12T04:01:54.554Z,7.30
2023-03-12T04:04:21.887Z,5.97
2023-03-12T04:06:49.314Z,5.87
2023-03-12T04:09:16.920Z,7.00
2023-03-12T04:11:44.546Z,6.32
2023-03-12T04:14:13.604Z,7.03
2023-03-12T04:16:44.481Z,6.50
2023-03-12T04:19:12.260Z,7.07
2023-03-12T04:21:39.783Z,6.45
2023-03-12T04:24:08.437Z,7.95
2023-03-12T04:26:36.210Z,6.72
2023-03-12T04:29:05.866Z,7.20
2023-03-12T04:31:33.298Z,6.67
2023-03-12T04:34:00.903Z,7.22
2023-03-12T04:36:28.597Z,7.55
2023-03-12T04:38:56.727Z,7.35
2023-03-12T04:41:28.815Z,6.53
2023-03-12T04:44:04.203Z,5.40
2023-03-12T04:46:31.841Z,7.80
2023-03-12T04:49:02.651Z,10.00
2023-03-12T04:51:31.905Z,7.45
2023-03-12T04:54:01.493Z,6.70
2023-03-12T04:56:29.132Z,9.97
2023-03-12T04:59:02.754Z,6.80
2023-03-12T05:01:34.981Z,6.55
2023-03-12T05:04:07.017Z,7.10
2023-03-12T05:06:34.664Z,5.85
2023-03-12T05:09:02.500Z,7.07
2023-03-12T05:11:30.331Z,7.00
2023-03-12T05:13:57.769Z,6.72
2023-03-12T05:16:25.301Z,6.75
2023-03-12T05:18:52.833Z,6.20
2023-03-12T05:21:22.170Z,10.03
2023-03-12T05:23:52.709Z,5.80
2023-03-12T05:26:22.171Z,6.82
2023-03-12T05:28:50.524Z,7.55
2023-03-12T05:31:19.582Z,7.55
2023-03-12T05:33:47.122Z,8.17
2023-03-12T05:36:15.233Z,7.50
2023-03-12T05:38:44.359Z,9.52
2023-03-12T05:41:21.646Z,9.10
2023-03-12T05:43:49.997Z,8.98
2023-03-12T05:46:17.930Z,6.30
2023-03-12T05:48:46.059Z,8.45
2023-03-12T05:51:13.362Z,8.10
2023-03-12T05:53:40.792Z,6.68
2023-03-12T05:56:09.399Z,7.07
2023-03-12T05:58:38.183Z,6.80
2023-03-12T06:01:15.543Z,8.18
2023-03-12T06:03:44.112Z,9.35
2023-03-12T06:06:11.526Z,6.70
2023-03-12T06:08:40.067Z,6.40
2023-03-12T06:11:07.552Z,8.37
2023-03-12T06:13:35.160Z,6.18
2023-03-12T06:16:06.907Z,7.90
2023-03-12T06:18:35.578Z,6.00
2023-03-12T06:21:10.235Z,7.10
2023-03-12T06:23:37.851Z,6.13
2023-03-12T06:26:05.900Z,8.98
2023-03-12T06:28:33.587Z,5.25
2023-03-12T06:31:01.064Z,4.97
2023-03-12T06:33:28.693Z,4.13
2023-03-12T06:35:58.026Z,8.17
2023-03-12T06:38:25.664Z,6.65
2023-03-12T06:41:00.170Z,5.68
2023-03-12T06:43:28.521Z,6.50
2023-03-12T06:45:56.521Z,5.22
2023-03-12T06:48:24.334Z,6.33
2023-03-12T06:50:51.723Z,5.78
2023-03-12T06:53:19.647Z,5.45
2023-03-12T06:55:47.048Z,5.43
2023-03-12T06:58:14.440Z,7.20
2023-03-12T07:00:41.677Z,6.03
2023-03-12T07:03:09.166Z,6.70
2023-03-12T07:05:36.468Z,5.25
2023-03-12T07:08:03.839Z,7.50
2023-03-12T07:10:31.649Z,7.78
2023-03-12T07:12:59.046Z,6.57
2023-03-12T07:15:26.457Z,7.00
2023-03-12T07:17:53.840Z,5.55
2023-03-12T07:20:21.216Z,5.30
2023-03-12T07:22:48.582Z,5.95
2023-03-12T07:25:18.556Z,5.70
2023-03-12T07:27:46.314Z,7.25
2023-03-12T07:30:13.719Z,8.15
2023-03-12T07:32:41.350Z,6.25
2023-03-12T07:35:09.051Z,7.10
2023-03-12T07:37:36.385Z,6.87
2023-03-12T07:40:07.459Z,7.18
2023-03-12T07:42:35.072Z,6.10
2023-03-12T07:45:02.560Z,6.38
2023-03-12T07:47:29.991Z,6.43
2023-03-12T07:49:57.354Z,6.90
2023-03-12T07:52:24.818Z,6.18
2023-03-12T07:54:52.986Z,6.97
2023-03-12T07:57:20.514Z,7.07
2023-03-12T07:59:48.238Z,5.75
2023-03-12T08:02:15.744Z,6.93
2023-03-12T08:04:43.071Z,6.90
2023-03-12T08:07:10.441Z,8.32
2023-03-12T08:09:38.865Z,7.97
2023-03-12T08:12:07.079Z,12.40
2023-03-12T08:14:34.902Z,12.73
2023-03-12T08:17:02.264Z,6.93
2023-03-12T08:19:29.558Z,7.18
2023-03-12T08:21:58.112Z,6.78
2023-03-12T08:24:25.396Z,7.32
2023-03-12T08:26:52.741Z,6.80
2023-03-12T08:29:20.534Z,7.07
2023-03-12T08:32:03.695Z,7.60
2023-03-12T08:34:31.804Z,8.85
2023-03-12T08:36:59.103Z,5.82
2023-03-12T08:39:26.470Z,5.93
2023-03-12T08:41:55.579Z,5.70
2023-03-12T08:44:23.389Z,7.03
2023-03-12T08:46:53.712Z,5.78
2023-03-12T08:49:21.360Z,6.05
2023-03-12T08:51:48.865Z,5.03
2023-03-12T08:54:16.186Z,5.45
2023-03-12T08:56:43.903Z,5.60
2023-03-12T08:59:11.608Z,7.30
2023-03-12T09:01:41.154Z,6.38
2023-03-12T09:04:09.662Z,5.63
2023-03-12T09:06:38.619Z,6.65
2023-03-12T09:09:06.441Z,6.47
2023-03-12T09:11:34.013Z,6.40
2023-03-12T09:14:49.860Z,5.93
2023-03-12T09:16:49.290Z,5.93
2023-03-12T09:19:16.624Z,5.30
2023-03-12T09:21:43.993Z,4.40
2023-03-12T09:24:11.820Z,5.75
2023-03-12T09:26:39.205Z,7.57
2023-03-12T09:29:06.469Z,4.97
2023-03-12T09:31:34.781Z,5.10
2023-03-12T09:34:02.510Z,6.07
2023-03-12T09:36:29.846Z,6.40
2023-03-12T09:38:57.101Z,4.75
2023-03-12T09:41:26.761Z,4.27
2023-03-12T09:44:09.352Z,5.95
2023-03-12T09:46:42.362Z,5.90
2023-03-12T09:49:26.852Z,4.97
2023-03-12T09:51:55.581Z,5.65
2023-03-12T09:54:47.433Z,5.73
2023-03-12T09:57:17.482Z,4.45
2023-03-12T09:59:44.887Z,6.38
2023-03-12T10:02:40.048Z,5.97
2023-03-12T10:05:28.128Z,6.63
2023-03-12T10:08:17.243Z,3.93
2023-03-12T10:10:53.545Z,5.60
2023-03-12T10:13:37.139Z,6.00
2023-03-12T10:16:12.519Z,5.20
2023-03-12T10:18:55.893Z,5.25
2023-03-12T10:21:38.062Z,6.33
2023-03-12T10:24:19.298Z,5.40
2023-03-12T10:26:50.032Z,5.20
2023-03-12T10:29:24.757Z,5.35
2023-03-12T10:32:01.068Z,5.88
2023-03-12T10:34:32.319Z,6.10
2023-03-12T10:37:01.816Z,9.02
2023-03-12T10:39:29.082Z,5.43
2023-03-12T10:41:56.401Z,4.65
2023-03-12T10:44:24.873Z,6.07
2023-03-12T10:47:19.508Z,5.53
2023-03-12T10:49:50.619Z,5.55
2023-03-12T10:52:22.232Z,5.93
2023-03-12T10:54:51.852Z,8.32
2023-03-12T10:57:19.383Z,8.32
2023-03-12T10:59:48.225Z,5.17
2023-03-12T11:02:30.913Z,6.35
2023-03-12T11:04:58.375Z,7.80
2023-03-12T11:07:34.421Z,6.50
2023-03-12T11:10:07.682Z,5.78
2023-03-12T11:12:36.733Z,5.03
2023-03-12T11:15:18.073Z,7.07
2023-03-12T11:17:45.564Z,5.95
2023-03-12T11:20:21.982Z,6.55
2023-03-12T11:22:51.548Z,7.10
2023-03-12T11:25:23.245Z,7.73
2023-03-12T11:27:53.345Z,6.32
2023-03-12T11:30:29.971Z,10.88
2023-03-12T11:32:58.279Z,6.10
2023-03-12T11:35:34.512Z,6.25
2023-03-12T11:38:22.156Z,8.37
2023-03-12T11:41:04.952Z,4.93
2023-03-12T11:43:53.801Z,5.78
2023-03-12T11:46:54.269Z,6.07
2023-03-12T11:49:34.913Z,5.88
2023-03-12T11:52:11.095Z,5.53
2023-03-12T11:54:44.364Z,4.57
2023-03-12T11:57:17.325Z,8.52
2023-03-12T12:00:13.125Z,6.78
2023-03-12T12:03:03.744Z,9.10
2023-03-12T12:05:38.830Z,6.77
2023-03-12T12:08:30.826Z,7.38
2023-03-12T12:11:19.483Z,6.80
2023-03-12T12:13:57.111Z,8.10
2023-03-12T12:16:50.997Z,8.10
2023-03-12T12:19:37.777Z,8.23
2023-03-12T12:22:31.964Z,3.58
2023-03-12T12:25:23.900Z,6.53
2023-03-12T12:28:13.158Z,7.30
2023-03-12T12:31:08.923Z,7.93
2023-03-12T12:34:07.797Z,7.00
2023-03-12T12:36:35.527Z,6.97
2023-03-12T12:39:10.331Z,6.53
2023-03-12T12:41:40.443Z,8.77
2023-03-12T12:44:11.821Z,8.15
2023-03-12T12:46:45.297Z,7.03
2023-03-12T12:49:15.044Z,7.13
2023-03-12T12:51:44.912Z,6.70
2023-03-12T12:54:24.056Z,8.57
2023-03-12T12:56:52.678Z,8.02
2023-03-12T12:59:43.461Z,8.47
2023-03-12T13:02:24.358Z,6.88
2023-03-12T13:04:51.764Z,6.75
2023-03-12T13:07:22.011Z,5.78
2023-03-12T13:09:54.161Z,7.10
2023-03-12T13:12:57.064Z,6.70
2023-03-12T13:15:30.061Z,6.15
2023-03-12T13:18:00.119Z,6.78
2023-03-12T13:20:31.673Z,6.30
2023-03-12T13:22:58.894Z,12.10
2023-03-12T13:26:01.947Z,8.50
2023-03-12T13:29:11.311Z,12.60
2023-03-12T13:31:41.371Z,7.20
2023-03-12T13:34:17.895Z,7.75
2023-03-12T13:36:46.249Z,10.88
2023-03-12T13:39:16.670Z,6.50
2023-03-12T13:41:50.696Z,7.22
2023-03-12T13:44:27.088Z,7.88
2023-03-12T13:47:06.527Z,5.80
2023-03-12T13:49:43.320Z,7.90
2023-03-12T13:52:23.550Z,5.73
2023-03-12T13:55:35.513Z,5.07
2023-03-12T13:58:09.686Z,6.15
2023-03-12T14:00:49.832Z,6.72
2023-03-12T14:03:20.018Z,7.50
2023-03-12T14:06:01.297Z,7.30
2023-03-12T14:08:28.618Z,6.53
2023-03-12T14:11:05.072Z,5.82
2023-03-12T14:14:26.080Z,7.10
2023-03-12T14:16:55.944Z,5.63
2023-03-12T14:19:45.441Z,7.20
2023-03-12T14:22:12.810Z,6.68
2023-03-12T14:24:41.564Z,6.30
2023-03-12T14:27:15.237Z,6.45
2023-03-12T14:29:44.052Z,8.27
2023-03-12T14:32:19.268Z,5.90
2023-03-12T14:34:48.874Z,7.18
2023-03-12T14:37:23.406Z,6.63
2023-03-12T14:39:54.341Z,6.28
2023-03-12T14:42:26.188Z,7.25
2023-03-12T14:44:55.925Z,6.43
2023-03-12T14:47:23.221Z,6.65
2023-03-12T14:49:50.583Z,5.93
2023-03-12T14:52:25.962Z,6.90
2023-03-12T14:55:01.542Z,5.40
2023-03-12T14:57:28.927Z,8.00
2023-03-12T15:00:00.311Z,5.93
2023-03-12T15:02:28.791Z,7.65
2023-03-12T15:04:57.347Z,6.20
2023-03-12T15:07:43.013Z,6.72
2023-03-12T15:10:24.484Z,7.00
2023-03-12T15:12:53.246Z,7.78
2023-03-12T15:15:30.583Z,6.13
2023-03-12T15:17:58.093Z,6.05
2023-03-12T15:20:25.378Z,6.10
2023-03-12T15:22:52.903Z,7.50
2023-03-12T15:25:28.181Z,5.97
2023-03-12T15:28:24.937Z,8.40
2023-03-12T15:31:12.713Z,9.30
2023-03-12T15:33:40.889Z,7.35
2023-03-12T15:36:17.678Z,6.67
2023-03-12T15:38:49.816Z,6.65
2023-03-12T15:41:32.506Z,9.30
2023-03-12T15:43:59.828Z,8.48
2023-03-12T15:46:35.018Z,15.10
2023-03-12T15:49:05.747Z,9.97
2023-03-12T15:51:34.806Z,13.35
2023-03-12T15:54:14.213Z,7.60
2023-03-12T15:56:41.664Z,10.45
2023-03-12T15:59:27.764Z,8.73
2023-03-12T16:01:56.082Z,8.03
2023-03-12T16:04:24.012Z,8.30
2023-03-12T16:06:51.494Z,7.57
2023-03-12T16:09:20.739Z,6.13
2023-03-12T16:11:48.073Z,9.68
2023-03-12T16:14:29.030Z,7.93
2023-03-12T16:16:56.374Z,7.28
2023-03-12T16:19:23.883Z,7.75
2023-03-12T16:21:51.285Z,7.53
2023-03-12T16:24:18.653Z,7.70
2023-03-12T16:26:53.947Z,13.07
2023-03-12T16:29:21.388Z,11.73
2023-03-12T16:31:53.347Z,10.27
2023-03-12T16:34:20.752Z,8.82
2023-03-12T16:36:48.011Z,8.15
2023-03-12T16:39:17.150Z,8.13
2023-03-12T16:41:46.408Z,10.80
2023-03-12T16:44:16.026Z,8.35
2023-03-12T16:46:43.417Z,12.52
2023-03-12T16:49:17.140Z,11.15
2023-03-12T16:51:44.551Z,9.87
2023-03-12T16:54:12.502Z,8.52
2023-03-12T16:56:49.457Z,13.25
2023-03-12T16:59:26.037Z,11.55
2023-03-12T17:01:53.430Z,9.93
2023-03-12T17:04:20.820Z,9.87
2023-03-12T17:06:48.174Z,10.25
2023-03-12T17:09:15.475Z,10.80
2023-03-12T17:11:43.390Z,12.18
2023-03-12T17:14:20.355Z,10.40
2023-03-12T17:16:47.813Z,12.03
2023-03-12T17:19:15.304Z,10.98
2023-03-12T17:21:43.431Z,8.65
2023-03-12T17:24:16.939Z,9.48
2023-03-12T17:26:45.651Z,9.20
2023-03-12T17:29:12.988Z,9.87
2023-03-12T17:31:40.430Z,8.95
2023-03-12T17:34:08.458Z,9.15
2023-03-12T17:36:37.458Z,10.23
2023-03-12T17:39:04.819Z,10.02
2023-03-12T17:41:33.047Z,9.60
2023-03-12T17:44:02.273Z,7.78
2023-03-12T17:46:30.365Z,11.95
2023-03-12T17:48:57.782Z,13.07
2023-03-12T17:51:25.383Z,11.45
2023-03-12T17:53:52.682Z,11.90
2023-03-12T17:56:20.046Z,11.95
2023-03-12T17:58:47.322Z,11.00
2023-03-12T18:01:15.127Z,11.48
2023-03-12T18:03:44.189Z,12.55
2023-03-12T18:06:11.849Z,12.23
2023-03-12T18:08:39.135Z,13.10
2023-03-12T18:11:06.661Z,14.98
2023-03-12T18:13:34.009Z,13.95
2023-03-12T18:16:01.402Z,13.23
2023-03-12T18:18:28.923Z,16.27
2023-03-12T18:20:56.428Z,16.67
2023-03-12T18:23:25.334Z,15.75
2023-03-12T18:25:52.852Z,16.13
2023-03-12T18:28:21.067Z,18.58
2023-03-12T18:30:48.736Z,14.90
2023-03-12T18:33:16.343Z,12.57
2023-03-12T18:35:44.005Z,11.45
2023-03-12T18:38:11.440Z,14.98
2023-03-12T18:40:38.899Z,11.23
2023-03-12T18:43:06.477Z,11.07
2023-03-12T18:45:33.978Z,10.68
2023-03-12T18:48:01.247Z,9.38
2023-03-12T18:50:28.591Z,11.10
2023-03-12T18:52:55.994Z,9.90
2023-03-12T18:55:23.415Z,10.77
2023-03-12T18:57:50.809Z,12.15
2023-03-12T19:00:20.339Z,11.15
2023-03-12T19:02:48.413Z,7.95
2023-03-12T19:05:16.121Z,9.38
2023-03-12T19:07:43.616Z,9.40
2023-03-12T19:10:11.616Z,11.07
2023-03-12T19:12:50.900Z,10.55
2023-03-12T19:15:20.711Z,13.05
2023-03-12T19:17:48.092Z,14.25
2023-03-12T19:20:15.784Z,15.57
2023-03-12T19:22:43.500Z,13.30
2023-03-12T19:25:10.899Z,16.25
2023-03-12T19:27:38.255Z,20.70
2023-03-12T19:30:06.241Z,17.73
2023-03-12T19:32:43.299Z,13.07
2023-03-12T19:35:12.445Z,15.00
2023-03-12T19:37:39.786Z,15.10
2023-03-12T19:40:07.534Z,13.32
2023-03-12T19:42:34.906Z,11.18
2023-03-12T19:45:02.280Z,13.30
2023-03-12T19:47:29.824Z,11.93
2023-03-12T19:49:57.178Z,10.57
2023-03-12T19:52:24.495Z,12.52
2023-03-12T19:55:03.320Z,9.88
2023-03-12T19:57:31.715Z,11.53
2023-03-12T19:59:59.235Z,9.82
2023-03-12T20:02:26.938Z,9.70
2023-03-12T20:04:55.476Z,8.77
2023-03-12T20:07:22.864Z,11.45
2023-03-12T20:09:50.427Z,10.47
2023-03-12T20:12:17.820Z,12.93
2023-03-12T20:14:45.064Z,9.60
2023-03-12T20:17:12.446Z,11.50
2023-03-12T20:19:39.969Z,13.93
2023-03-12T20:22:07.417Z,18.03
2023-03-12T20:24:34.888Z,12.80
2023-03-12T20:27:02.296Z,16.05
2023-03-12T20:29:29.577Z,12.23
2023-03-12T20:31:56.965Z,14.93
2023-03-12T20:34:24.303Z,13.40
2023-03-12T20:36:51.646Z,12.35
2023-03-12T20:39:19.054Z,13.77
2023-03-12T20:41:46.473Z,11.75
2023-03-12T20:44:13.689Z,11.75
2023-03-12T20:46:41.059Z,10.93
2023-03-12T20:49:08.366Z,12.55
2023-03-12T20:51:35.733Z,10.50
2023-03-12T20:54:03.177Z,14.10
2023-03-12T20:56:30.545Z,11.43
2023-03-12T20:58:59.353Z,12.20
2023-03-12T21:01:26.877Z,14.25
2023-03-12T21:03:57.834Z,11.70
2023-03-12T21:06:26.204Z,10.77
2023-03-12T21:08:56.270Z,12.52
2023-03-12T21:11:23.834Z,10.70
2023-03-12T21:13:51.112Z,12.38
2023-03-12T21:16:18.491Z,13.60
2023-03-12T21:18:45.872Z,12.57
2023-03-12T21:21:13.360Z,13.32
2023-03-12T21:23:40.651Z,12.70
2023-03-12T21:26:09.602Z,11.02
2023-03-12T21:28:37.100Z,10.93
2023-03-12T21:31:09.195Z,13.55
2023-03-12T21:33:36.593Z,10.50
2023-03-12T21:36:08.419Z,11.77
2023-03-12T21:38:36.270Z,10.98
2023-03-12T21:41:07.220Z,13.80
2023-03-12T21:43:34.791Z,12.75
2023-03-12T21:46:09.921Z,11.27
2023-03-12T21:48:37.539Z,10.23
2023-03-12T21:51:06.375Z,11.90
2023-03-12T21:53:33.949Z,12.07
2023-03-12T21:56:01.539Z,12.50
2023-03-12T21:58:29.315Z,9.50
2023-03-12T22:01:13.627Z,11.87
2023-03-12T22:03:41.586Z,12.13
2023-03-12T22:06:09.078Z,13.13
2023-03-12T22:08:36.781Z,13.60
2023-03-12T22:11:05.141Z,12.90
2023-03-12T22:13:32.510Z,11.67
2023-03-12T22:16:01.360Z,11.80
2023-03-12T22:18:29.014Z,10.82
2023-03-12T22:20:57.727Z,13.15
2023-03-12T22:23:25.088Z,12.82
2023-03-12T22:25:52.332Z,12.73
2023-03-12T22:28:19.709Z,11.55
2023-03-12T22:30:47.024Z,11.82
2023-03-12T22:33:14.364Z,12.95
2023-03-12T22:35:45.650Z,11.07
2023-03-12T22:38:12.981Z,11.57
2023-03-12T22:40:40.558Z,11.52
2023-03-12T22:43:07.931Z,11.38
2023-03-12T22:45:35.682Z,11.88
2023-03-12T22:48:03.064Z,11.48
2023-03-12T22:50:30.365Z,13.63
2023-03-12T22:52:57.716Z,13.68
2023-03-12T22:55:25.072Z,13.27
2023-03-12T22:57:52.418Z,10.45
2023-03-12T23:00:24.006Z,10.65
2023-03-12T23:02:51.325Z,12.37
2023-03-12T23:05:18.702Z,10.45
2023-03-12T23:07:46.255Z,13.50
2023-03-12T23:10:13.587Z,11.02
2023-03-12T23:12:40.915Z,11.07
2023-03-12T23:15:08.780Z,10.80
2023-03-12T23:17:38.205Z,12.32
2023-03-12T23:20:05.941Z,9.65
2023-03-12T23:22:33.563Z,11.00
2023-03-12T23:25:00.857Z,11.60
2023-03-12T23:27:28.223Z,14.27
2023-03-12T23:29:55.507Z,10.63
2023-03-12T23:32:23.097Z,11.73
2023-03-12T23:34:50.442Z,12.27
2023-03-12T23:37:17.791Z,9.02
2023-03-12T23:39:54.020Z,13.73
2023-03-12T23:42:22.364Z,10.73
2023-03-12T23:44:49.624Z,13.13
2023-03-12T23:47:16.978Z,12.15
2023-03-12T23:49:44.268Z,13.77
2023-03-12T23:52:11.610Z,12.33
2023-03-12T23:54:38.995Z,11.30
2023-03-12T23:57:06.336Z,12.25
2023-03-12T23:59:33.591Z,11.68
